createdAt,value
2019-06-10T00:00:21.229Z,40.22
2019-06-10T00:01:21.379Z,40.33
2019-06-10T00:02:21.333Z,40.62
2019-06-10T00:03:20.621Z,40.52
2019-06-10T00:04:21.932Z,40.22
2019-06-10T00:05:21.476Z,40.62
2019-06-10T00:06:20.980Z,40.42
2019-06-10T00:07:21.092Z,40.34
2019-06-10T00:08:20.939Z,40.22
2019-06-10T00:09:21.098Z,40.34
2019-06-10T00:10:21.345Z,40.62
2019-06-10T00:11:21.252Z,40.14
2019-06-10T00:12:20.976Z,40.54
2019-06-10T00:13:20.927Z,40.74
2019-06-10T00:14:21.226Z,40.12
2019-06-10T00:15:21.217Z,40.94
2019-06-10T00:16:20.834Z,41.93
2019-06-10T00:17:21.202Z,41.61
2019-06-10T00:18:35.348Z,41.63
2019-06-10T00:19:21.714Z,40.82
2019-06-10T00:20:21.472Z,41.91
2019-06-10T00:21:21.576Z,41.34
2019-06-10T00:22:21.419Z,41.31
2019-06-10T00:23:21.232Z,41.44
2019-06-10T00:24:21.107Z,41.14
2019-06-10T00:25:20.987Z,41.42
2019-06-10T00:26:21.476Z,41.61
2019-06-10T00:27:21.458Z,41.02
2019-06-10T00:28:21.581Z,40.94
2019-06-10T00:29:18.980Z,41.34
2019-06-10T00:30:20.844Z,41.71
2019-06-10T00:31:20.749Z,41.22
2019-06-10T00:32:21.375Z,41.42
2019-06-10T00:33:21.439Z,41.12
2019-06-10T00:34:20.832Z,41.31
2019-06-10T00:35:20.950Z,41.71
2019-06-10T00:36:21.376Z,41.12
2019-06-10T00:37:21.117Z,41.71
2019-06-10T00:38:21.213Z,41.12
2019-06-10T00:39:18.882Z,40.42
2019-06-10T00:40:21.299Z,41.22
2019-06-10T00:41:18.853Z,41.42
2019-06-10T00:42:21.444Z,41.82
2019-06-10T00:43:21.203Z,41.82
2019-06-10T00:44:20.613Z,41.31
2019-06-10T00:45:21.431Z,41.42
2019-06-10T00:46:21.070Z,41.71
2019-06-10T00:47:21.047Z,41.42
2019-06-10T00:48:26.200Z,41.31
2019-06-10T00:49:21.300Z,40.94
2019-06-10T00:50:18.756Z,40.92
2019-06-10T00:51:20.769Z,40.92
2019-06-10T00:52:21.200Z,41.31
2019-06-10T00:53:20.948Z,41.12
2019-06-10T00:54:18.713Z,40.12
2019-06-10T00:55:21.047Z,40.42
2019-06-10T00:56:18.697Z,40.52
2019-06-10T00:57:20.749Z,40.62
2019-06-10T00:58:21.462Z,40.42
2019-06-10T00:59:18.665Z,40.54
2019-06-10T01:00:25.637Z,40.22
2019-06-10T01:01:21.873Z,40.82
2019-06-10T01:02:21.195Z,40.92
2019-06-10T01:03:20.838Z,40.33
2019-06-10T01:04:21.411Z,40.42
2019-06-10T01:05:20.748Z,40.42
2019-06-10T01:06:21.136Z,41.02
2019-06-10T01:07:18.575Z,40.44
2019-06-10T01:08:21.249Z,40.12
2019-06-10T01:09:18.550Z,40.12
2019-06-10T01:10:20.940Z,40.22
2019-06-10T01:11:25.839Z,40.33
2019-06-10T01:12:21.139Z,40.42
2019-06-10T01:13:20.638Z,40.33
2019-06-10T01:14:18.497Z,41.22
2019-06-10T01:15:18.485Z,41.42
2019-06-10T01:16:18.475Z,40.12
2019-06-10T01:17:18.465Z,40.12
2019-06-10T01:18:34.850Z,40.42
2019-06-10T01:19:21.684Z,40.72
2019-06-10T01:20:18.440Z,41.22
2019-06-10T01:21:18.421Z,40.92
2019-06-10T01:22:18.413Z,40.92
2019-06-10T01:23:18.402Z,40.94
2019-06-10T01:24:18.397Z,40.74
2019-06-10T01:25:18.382Z,40.34
2019-06-10T01:26:18.399Z,40.94
2019-06-10T01:27:18.360Z,41.74
2019-06-10T01:28:18.644Z,41.44
2019-06-10T01:29:20.829Z,41.44
2019-06-10T01:30:23.618Z,41.93
2019-06-10T01:31:23.920Z,41.52
2019-06-10T01:32:18.322Z,41.12
2019-06-10T01:33:18.290Z,41.12
2019-06-10T01:34:18.470Z,41.82
2019-06-10T01:35:18.284Z,41.24
2019-06-10T01:36:20.878Z,41.93
2019-06-10T01:37:18.260Z,41.53
2019-06-10T01:38:20.714Z,41.53
2019-06-10T01:39:18.316Z,41.52
2019-06-10T01:40:20.768Z,41.04
2019-06-10T01:41:18.226Z,41.34
2019-06-10T01:42:18.278Z,42.03
2019-06-10T01:43:18.444Z,41.14
2019-06-10T01:44:18.240Z,41.63
2019-06-10T01:45:18.294Z,41.74
2019-06-10T01:46:18.168Z,41.53
2019-06-10T01:47:18.142Z,42.33
2019-06-10T01:48:18.170Z,41.63
2019-06-10T01:49:18.264Z,41.93
2019-06-10T01:50:19.492Z,41.24
2019-06-10T01:51:18.096Z,41.83
2019-06-10T01:52:18.463Z,41.44
2019-06-10T01:53:18.829Z,41.53
2019-06-10T01:54:18.456Z,41.53
2019-06-10T01:55:18.322Z,42.03
2019-06-10T01:56:18.547Z,41.14
2019-06-10T01:57:18.636Z,41.46
2019-06-10T01:58:20.748Z,41.53
2019-06-10T01:59:21.638Z,41.44
2019-06-10T02:00:25.127Z,42.03
2019-06-10T02:01:23.070Z,42.03
2019-06-10T02:02:19.368Z,42.45
2019-06-10T02:03:18.938Z,42.43
2019-06-10T02:04:19.903Z,41.93
2019-06-10T02:05:19.613Z,42.03
2019-06-10T02:06:20.524Z,42.03
2019-06-10T02:07:22.715Z,42.05
2019-06-10T02:08:19.720Z,41.53
2019-06-10T02:09:18.791Z,41.74
2019-06-10T02:10:19.052Z,42.15
2019-06-10T02:11:21.394Z,42.15
2019-06-10T02:12:20.143Z,42.23
2019-06-10T02:13:17.858Z,42.35
2019-06-10T02:14:19.366Z,41.46
2019-06-10T02:15:18.465Z,42.13
2019-06-10T02:16:19.463Z,41.66
2019-06-10T02:17:20.030Z,41.75
2019-06-10T02:18:18.066Z,42.43
2019-06-10T02:19:18.674Z,41.36
2019-06-10T02:20:19.381Z,42.35
2019-06-10T02:21:19.383Z,42.35
2019-06-10T02:22:18.530Z,42.65
2019-06-10T02:23:18.716Z,42.25
2019-06-10T02:24:19.046Z,42.33
2019-06-10T02:25:18.759Z,41.93
2019-06-10T02:26:18.269Z,43.24
2019-06-10T02:27:18.961Z,42.23
2019-06-10T02:28:17.695Z,42.15
2019-06-10T02:29:17.683Z,41.63
2019-06-10T02:30:28.509Z,42.45
2019-06-10T02:31:27.529Z,42.23
2019-06-10T02:32:30.487Z,41.93
2019-06-10T02:33:22.763Z,42.94
2019-06-10T02:34:25.056Z,42.45
2019-06-10T02:35:30.645Z,42.35
2019-06-10T02:36:25.597Z,42.35
2019-06-10T02:37:22.488Z,42.94
2019-06-10T02:38:26.296Z,42.65
2019-06-10T02:39:25.824Z,42.75
2019-06-10T02:40:24.533Z,42.43
2019-06-10T02:41:22.420Z,42.45
2019-06-10T02:42:21.634Z,43.05
2019-06-10T02:43:22.246Z,43.44
2019-06-10T02:44:24.019Z,43.15
2019-06-10T02:45:25.256Z,42.45
2019-06-10T02:46:27.354Z,42.94
2019-06-10T02:47:22.698Z,42.75
2019-06-10T02:48:21.971Z,42.25
2019-06-10T02:49:35.220Z,43.15
2019-06-10T02:50:22.749Z,42.45
2019-06-10T02:51:22.102Z,43.52
2019-06-10T02:52:20.652Z,43.54
2019-06-10T02:53:19.251Z,42.94
2019-06-10T02:54:20.204Z,43.54
2019-06-10T02:55:19.654Z,43.44
2019-06-10T02:56:19.426Z,43.64
2019-06-10T02:57:18.770Z,43.52
2019-06-10T02:58:19.098Z,42.93
2019-06-10T02:59:18.235Z,43.32
2019-06-10T03:00:31.102Z,43.35
2019-06-10T03:01:21.094Z,43.92
2019-06-10T03:02:18.341Z,43.74
2019-06-10T03:03:22.883Z,43.64
2019-06-10T03:04:20.663Z,43.64
2019-06-10T03:05:19.604Z,43.64
2019-06-10T03:06:20.697Z,43.54
2019-06-10T03:07:20.126Z,43.74
2019-06-10T03:08:18.499Z,43.15
2019-06-10T03:09:18.414Z,43.05
2019-06-10T03:10:19.521Z,43.64
2019-06-10T03:11:19.226Z,43.44
2019-06-10T03:12:17.640Z,44.24
2019-06-10T03:13:17.639Z,44.44
2019-06-10T03:14:17.749Z,43.35
2019-06-10T03:15:17.867Z,43.54
2019-06-10T03:16:17.821Z,43.44
2019-06-10T03:17:17.765Z,43.44
2019-06-10T03:18:17.802Z,43.74
2019-06-10T03:19:33.238Z,43.64
2019-06-10T03:20:18.133Z,44.34
2019-06-10T03:21:17.965Z,43.54
2019-06-10T03:22:17.994Z,43.44
2019-06-10T03:23:17.983Z,43.44
2019-06-10T03:24:17.092Z,42.85
2019-06-10T03:25:18.207Z,43.54
2019-06-10T03:26:17.275Z,43.32
2019-06-10T03:27:18.295Z,43.44
2019-06-10T03:28:17.441Z,43.35
2019-06-10T03:29:17.034Z,42.83
2019-06-10T03:30:26.182Z,43.44
2019-06-10T03:31:18.812Z,43.54
2019-06-10T03:32:19.654Z,43.05
2019-06-10T03:33:17.735Z,42.93
2019-06-10T03:34:18.162Z,43.72
2019-06-10T03:35:17.367Z,42.93
2019-06-10T03:36:18.133Z,43.13
2019-06-10T03:37:18.239Z,43.62
2019-06-10T03:38:17.169Z,43.54
2019-06-10T03:39:16.944Z,43.32
2019-06-10T03:40:16.916Z,43.32
2019-06-10T03:41:16.903Z,43.44
2019-06-10T03:42:16.901Z,44.32
2019-06-10T03:43:16.899Z,43.52
2019-06-10T03:44:16.966Z,43.42
2019-06-10T03:45:17.477Z,43.52
2019-06-10T03:46:17.266Z,43.62
2019-06-10T03:47:17.120Z,43.32
2019-06-10T03:48:17.101Z,43.52
2019-06-10T03:49:17.181Z,43.82
2019-06-10T03:50:17.223Z,43.32
2019-06-10T03:51:17.169Z,43.23
2019-06-10T03:52:17.118Z,43.32
2019-06-10T03:53:17.292Z,43.23
2019-06-10T03:54:17.150Z,43.32
2019-06-10T03:55:17.266Z,43.23
2019-06-10T03:56:17.161Z,43.32
2019-06-10T03:57:17.162Z,43.62
2019-06-10T03:58:17.462Z,44.02
2019-06-10T03:59:17.195Z,45.01
2019-06-10T04:00:17.484Z,44.42
2019-06-10T04:01:17.404Z,44.42
2019-06-10T04:02:17.307Z,44.81
2019-06-10T04:03:17.342Z,44.62
2019-06-10T04:04:17.377Z,44.71
2019-06-10T04:05:17.519Z,44.52
2019-06-10T04:06:17.449Z,45.41
2019-06-10T04:07:17.994Z,45.51
2019-06-10T04:08:17.458Z,46.50
2019-06-10T04:09:17.426Z,45.81
2019-06-10T04:10:17.545Z,46.70
2019-06-10T04:11:17.431Z,46.20
2019-06-10T04:12:17.471Z,45.81
2019-06-10T04:13:17.486Z,46.60
2019-06-10T04:14:17.577Z,47.13
2019-06-10T04:15:17.632Z,47.30
2019-06-10T04:16:17.604Z,47.22
2019-06-10T04:17:17.534Z,47.22
2019-06-10T04:18:17.854Z,47.22
2019-06-10T04:19:17.616Z,47.62
2019-06-10T04:20:17.485Z,47.72
2019-06-10T04:21:17.634Z,47.42
2019-06-10T04:22:17.601Z,47.72
2019-06-10T04:23:17.661Z,47.92
2019-06-10T04:24:17.644Z,49.11
2019-06-10T04:25:17.677Z,49.11
2019-06-10T04:26:17.552Z,47.62
2019-06-10T04:27:17.502Z,48.41
2019-06-10T04:28:17.742Z,47.52
2019-06-10T04:29:16.391Z,48.22
2019-06-10T04:30:16.689Z,49.41
2019-06-10T04:31:16.365Z,48.52
2019-06-10T04:32:16.357Z,48.11
2019-06-10T04:33:16.349Z,48.22
2019-06-10T04:34:16.333Z,48.22
2019-06-10T04:35:16.324Z,48.11
2019-06-10T04:36:16.317Z,48.22
2019-06-10T04:37:16.305Z,49.11
2019-06-10T04:38:16.295Z,48.61
2019-06-10T04:39:16.282Z,48.91
2019-06-10T04:40:16.268Z,49.61
2019-06-10T04:41:16.265Z,48.52
2019-06-10T04:42:16.249Z,49.51
2019-06-10T04:43:16.243Z,49.51
2019-06-10T04:44:16.228Z,49.31
2019-06-10T04:45:16.214Z,49.41
2019-06-10T04:46:16.210Z,49.31
2019-06-10T04:47:16.193Z,49.33
2019-06-10T04:48:16.188Z,49.51
2019-06-10T04:49:16.180Z,49.21
2019-06-10T04:50:24.906Z,49.31
2019-06-10T04:51:17.152Z,49.91
2019-06-10T04:52:16.140Z,50.10
2019-06-10T04:53:16.128Z,50.10
2019-06-10T04:54:16.117Z,50.70
2019-06-10T04:55:16.109Z,50.50
2019-06-10T04:56:16.099Z,50.90
2019-06-10T04:57:16.089Z,50.50
2019-06-10T04:58:16.075Z,50.63
2019-06-10T04:59:16.065Z,50.50
2019-06-10T05:00:16.055Z,49.71
2019-06-10T05:01:16.043Z,50.40
2019-06-10T05:02:16.034Z,50.43
2019-06-10T05:03:16.022Z,50.20
2019-06-10T05:04:16.015Z,50.63
2019-06-10T05:05:15.999Z,50.23
2019-06-10T05:06:15.993Z,51.03
2019-06-10T05:07:15.978Z,51.12
2019-06-10T05:08:15.971Z,50.52
2019-06-10T05:09:15.958Z,51.42
2019-06-10T05:10:15.951Z,51.03
2019-06-10T05:11:15.938Z,51.12
2019-06-10T05:12:15.931Z,52.02
2019-06-10T05:13:15.917Z,51.42
2019-06-10T05:14:15.902Z,51.32
2019-06-10T05:15:15.893Z,50.93
2019-06-10T05:16:15.886Z,50.33
2019-06-10T05:17:15.876Z,51.62
2019-06-10T05:18:15.859Z,50.93
2019-06-10T05:19:15.849Z,50.73
2019-06-10T05:20:15.837Z,51.52
2019-06-10T05:21:15.833Z,51.12
2019-06-10T05:22:15.816Z,51.52
2019-06-10T05:23:15.807Z,51.32
2019-06-10T05:24:15.796Z,50.52
2019-06-10T05:25:15.785Z,50.13
2019-06-10T05:26:15.775Z,50.13
2019-06-10T05:27:15.764Z,50.73
2019-06-10T05:28:15.754Z,50.52
2019-06-10T05:29:15.755Z,51.03
2019-06-10T05:30:15.730Z,51.03
2019-06-10T05:31:15.722Z,50.73
2019-06-10T05:32:15.708Z,50.93
2019-06-10T05:33:15.699Z,51.32
2019-06-10T05:34:15.694Z,50.52
2019-06-10T05:35:15.676Z,50.43
2019-06-10T05:36:15.665Z,51.52
2019-06-10T05:37:15.657Z,51.82
2019-06-10T05:38:15.643Z,51.32
2019-06-10T05:39:15.647Z,51.32
2019-06-10T05:40:15.626Z,51.72
2019-06-10T05:41:15.629Z,51.72
2019-06-10T05:42:15.602Z,51.12
2019-06-10T05:43:15.595Z,51.72
2019-06-10T05:44:15.577Z,51.52
2019-06-10T05:45:15.570Z,51.92
2019-06-10T05:46:15.565Z,51.42
2019-06-10T05:47:15.558Z,51.62
2019-06-10T05:48:16.853Z,51.32
2019-06-10T05:49:15.524Z,51.42
2019-06-10T05:50:15.514Z,50.80
2019-06-10T05:51:15.502Z,51.22
2019-06-10T05:52:15.496Z,51.92
2019-06-10T05:53:15.481Z,51.72
2019-06-10T05:54:15.471Z,51.40
2019-06-10T05:55:15.458Z,51.40
2019-06-10T05:56:15.447Z,51.72
2019-06-10T05:57:15.440Z,52.51
2019-06-10T05:58:15.432Z,52.51
2019-06-10T05:59:15.415Z,51.72
2019-06-10T06:00:15.421Z,52.12
2019-06-10T06:01:15.395Z,52.32
2019-06-10T06:02:15.386Z,52.91
2019-06-10T06:03:15.376Z,52.72
2019-06-10T06:04:15.368Z,52.81
2019-06-10T06:05:15.352Z,52.62
2019-06-10T06:06:15.344Z,52.81
2019-06-10T06:07:15.329Z,52.62
2019-06-10T06:08:15.321Z,52.12
2019-06-10T06:09:15.311Z,52.81
2019-06-10T06:10:15.307Z,52.12
2019-06-10T06:11:15.286Z,51.92
2019-06-10T06:12:15.278Z,53.02
2019-06-10T06:13:15.267Z,52.62
2019-06-10T06:14:15.253Z,52.51
2019-06-10T06:15:15.247Z,53.11
2019-06-10T06:16:15.248Z,52.49
2019-06-10T06:17:16.808Z,52.51
2019-06-10T06:18:15.209Z,52.81
2019-06-10T06:19:15.198Z,52.59
2019-06-10T06:20:15.188Z,52.79
2019-06-10T06:21:25.648Z,52.99
2019-06-10T06:22:16.166Z,52.59
2019-06-10T06:23:15.158Z,52.49
2019-06-10T06:24:15.166Z,52.29
2019-06-10T06:25:15.793Z,52.39
2019-06-10T06:26:16.768Z,52.49
2019-06-10T06:27:15.116Z,52.59
2019-06-10T06:28:16.300Z,52.79
2019-06-10T06:29:15.090Z,53.09
2019-06-10T06:30:18.590Z,52.79
2019-06-10T06:31:15.074Z,52.79
2019-06-10T06:32:15.059Z,53.19
2019-06-10T06:33:15.055Z,53.19
2019-06-10T06:34:15.092Z,53.09
2019-06-10T06:35:15.024Z,52.09
2019-06-10T06:36:15.014Z,52.69
2019-06-10T06:37:15.009Z,52.69
2019-06-10T06:38:14.999Z,53.58
2019-06-10T06:39:14.990Z,52.89
2019-06-10T06:40:14.969Z,52.99
2019-06-10T06:41:14.966Z,53.09
2019-06-10T06:42:14.953Z,52.89
2019-06-10T06:43:14.934Z,52.59
2019-06-10T06:44:14.926Z,52.79
2019-06-10T06:45:14.914Z,53.09
2019-06-10T06:46:14.902Z,53.09
2019-06-10T06:47:14.889Z,52.69
2019-06-10T06:48:14.881Z,52.29
2019-06-10T06:49:14.869Z,52.00
2019-06-10T06:50:14.877Z,52.00
2019-06-10T06:51:14.853Z,52.39
2019-06-10T06:52:14.837Z,52.79
2019-06-10T06:53:25.756Z,52.79
2019-06-10T06:54:15.813Z,52.07
2019-06-10T06:55:14.807Z,52.37
2019-06-10T06:56:14.801Z,52.79
2019-06-10T06:57:14.782Z,51.77
2019-06-10T06:58:14.769Z,51.97
2019-06-10T06:59:14.760Z,53.16
2019-06-10T07:00:41.082Z,52.67
2019-06-10T07:01:15.735Z,51.67
2019-06-10T07:02:14.726Z,51.84
2019-06-10T07:03:14.725Z,51.28
2019-06-10T07:04:14.707Z,50.98
2019-06-10T07:05:14.694Z,50.58
2019-06-10T07:06:14.686Z,51.77
2019-06-10T07:07:14.672Z,50.16
2019-06-10T07:08:14.665Z,51.17
2019-06-10T07:09:14.659Z,51.15
2019-06-10T07:10:14.649Z,51.84
2019-06-10T07:11:14.633Z,51.15
2019-06-10T07:12:14.620Z,50.05
2019-06-10T07:13:14.611Z,50.75
2019-06-10T07:14:14.602Z,50.95
2019-06-10T07:15:14.594Z,51.45
2019-06-10T07:16:14.580Z,51.15
2019-06-10T07:17:14.570Z,51.35
2019-06-10T07:18:14.556Z,51.65
2019-06-10T07:19:14.551Z,51.45
2019-06-10T07:20:14.535Z,50.26
2019-06-10T07:21:14.522Z,50.56
2019-06-10T07:22:16.269Z,51.25
2019-06-10T07:23:14.506Z,51.65
2019-06-10T07:24:14.495Z,51.35
2019-06-10T07:25:14.491Z,51.84
2019-06-10T07:26:14.472Z,50.85
2019-06-10T07:27:14.464Z,51.75
2019-06-10T07:28:14.450Z,50.83
2019-06-10T07:29:14.439Z,50.63
2019-06-10T07:30:15.204Z,50.93
2019-06-10T07:31:23.121Z,50.23
2019-06-10T07:32:15.409Z,49.84
2019-06-10T07:33:14.395Z,49.84
2019-06-10T07:34:14.385Z,49.14
2019-06-10T07:35:14.375Z,50.33
2019-06-10T07:36:14.365Z,49.04
2019-06-10T07:37:14.359Z,49.84
2019-06-10T07:38:14.344Z,49.81
2019-06-10T07:39:14.332Z,49.11
2019-06-10T07:40:14.321Z,47.43
2019-06-10T07:41:14.313Z,47.16
2019-06-10T07:42:14.300Z,46.95
2019-06-10T07:43:14.290Z,48.14
2019-06-10T07:44:14.280Z,47.85
2019-06-10T07:45:14.271Z,48.05
2019-06-10T07:46:14.258Z,48.05
2019-06-10T07:47:14.250Z,47.75
2019-06-10T07:48:14.235Z,48.84
2019-06-10T07:49:14.224Z,47.85
2019-06-10T07:50:14.213Z,48.94
2019-06-10T07:51:14.202Z,48.86
2019-06-10T07:52:19.461Z,48.94
2019-06-10T07:53:15.181Z,48.94
2019-06-10T07:54:14.169Z,50.33
2019-06-10T07:55:14.164Z,49.93
2019-06-10T07:56:14.147Z,49.74
2019-06-10T07:57:14.157Z,49.84
2019-06-10T07:58:14.125Z,50.43
2019-06-10T07:59:14.118Z,50.83
2019-06-10T08:00:14.105Z,50.63
2019-06-10T08:01:14.094Z,50.13
2019-06-10T08:02:14.085Z,50.23
2019-06-10T08:03:14.071Z,49.74
2019-06-10T08:04:14.068Z,50.73
2019-06-10T08:05:14.053Z,49.74
2019-06-10T08:06:14.045Z,49.93
2019-06-10T08:07:14.028Z,50.93
2019-06-10T08:08:14.018Z,50.73
2019-06-10T08:09:14.027Z,51.52
2019-06-10T08:10:13.997Z,50.83
2019-06-10T08:11:14.271Z,50.83
2019-06-10T08:12:13.978Z,51.32
2019-06-10T08:13:13.966Z,51.40
2019-06-10T08:14:13.955Z,50.53
2019-06-10T08:15:13.943Z,51.52
2019-06-10T08:16:13.932Z,51.12
2019-06-10T08:17:13.923Z,50.31
2019-06-10T08:18:13.910Z,51.62
2019-06-10T08:19:29.872Z,49.91
2019-06-10T08:20:14.891Z,50.31
2019-06-10T08:21:13.881Z,49.63
2019-06-10T08:22:29.973Z,49.04
2019-06-10T08:23:14.857Z,49.04
2019-06-10T08:24:13.848Z,49.84
2019-06-10T08:25:13.839Z,49.96
2019-06-10T08:26:13.831Z,49.96
2019-06-10T08:27:13.819Z,50.16
2019-06-10T08:28:13.816Z,50.23
2019-06-10T08:29:13.794Z,50.35
2019-06-10T08:30:22.188Z,51.35
2019-06-10T08:31:14.779Z,50.43
2019-06-10T08:32:13.762Z,51.35
2019-06-10T08:33:13.890Z,50.43
2019-06-10T08:34:13.740Z,50.13
2019-06-10T08:35:13.743Z,50.73
2019-06-10T08:36:13.848Z,50.03
2019-06-10T08:37:13.821Z,49.36
2019-06-10T08:38:13.708Z,50.16
2019-06-10T08:39:15.938Z,49.93
2019-06-10T08:40:13.678Z,50.73
2019-06-10T08:41:13.668Z,49.74
2019-06-10T08:42:13.657Z,49.93
2019-06-10T08:43:13.649Z,49.04
2019-06-10T08:44:13.641Z,49.74
2019-06-10T08:45:13.625Z,50.53
2019-06-10T08:46:13.612Z,50.53
2019-06-10T08:47:13.606Z,49.63
2019-06-10T08:48:13.593Z,50.63
2019-06-10T08:49:13.582Z,50.13
2019-06-10T08:50:13.574Z,50.70
2019-06-10T08:51:13.564Z,49.24
2019-06-10T08:52:13.548Z,49.02
2019-06-10T08:53:17.848Z,48.72
2019-06-10T08:54:13.529Z,49.71
2019-06-10T08:55:13.604Z,49.81
2019-06-10T08:56:13.507Z,50.31
2019-06-10T08:57:13.498Z,49.91
2019-06-10T08:58:13.489Z,49.41
2019-06-10T08:59:13.476Z,49.02
2019-06-10T09:00:16.288Z,49.51
2019-06-10T09:01:14.453Z,49.32
2019-06-10T09:02:13.505Z,49.11
2019-06-10T09:03:13.433Z,48.82
2019-06-10T09:04:13.480Z,49.21
2019-06-10T09:05:13.414Z,48.72
2019-06-10T09:06:13.519Z,49.02
2019-06-10T09:07:13.391Z,49.41
2019-06-10T09:08:13.380Z,48.13
2019-06-10T09:09:13.371Z,47.83
2019-06-10T09:10:13.570Z,47.23
2019-06-10T09:11:13.387Z,47.43
2019-06-10T09:12:28.654Z,47.23
2019-06-10T09:13:14.327Z,48.32
2019-06-10T09:14:13.386Z,47.33
2019-06-10T09:15:13.351Z,48.02
2019-06-10T09:16:19.104Z,48.02
2019-06-10T09:17:14.282Z,48.02
2019-06-10T09:18:14.972Z,47.92
2019-06-10T09:19:13.308Z,48.02
2019-06-10T09:20:13.251Z,47.73
2019-06-10T09:21:13.241Z,48.02
2019-06-10T09:22:13.237Z,47.83
2019-06-10T09:23:21.530Z,47.73
2019-06-10T09:24:14.207Z,47.92
2019-06-10T09:25:13.330Z,47.92
2019-06-10T09:26:13.195Z,47.83
2019-06-10T09:27:13.533Z,47.83
2019-06-10T09:28:13.169Z,48.13
2019-06-10T09:29:13.511Z,47.83
2019-06-10T09:30:13.582Z,48.13
2019-06-10T09:31:14.029Z,48.00
2019-06-10T09:32:13.125Z,47.73
2019-06-10T09:33:13.117Z,47.01
2019-06-10T09:34:13.104Z,46.93
2019-06-10T09:35:13.092Z,46.93
2019-06-10T09:36:13.083Z,46.81
2019-06-10T09:37:13.074Z,47.11
2019-06-10T09:38:14.187Z,47.80
2019-06-10T09:39:13.161Z,47.50
2019-06-10T09:40:13.040Z,47.61
2019-06-10T09:41:14.194Z,47.43
2019-06-10T09:42:14.334Z,48.00
2019-06-10T09:43:13.028Z,47.41
2019-06-10T09:44:13.164Z,47.01
2019-06-10T09:45:13.083Z,47.23
2019-06-10T09:46:12.979Z,47.63
2019-06-10T09:47:14.321Z,47.41
2019-06-10T09:48:13.336Z,47.21
2019-06-10T09:49:12.942Z,47.61
2019-06-10T09:50:12.934Z,47.61
2019-06-10T09:51:12.930Z,47.50
2019-06-10T09:52:13.486Z,48.13
2019-06-10T09:53:28.959Z,47.61
2019-06-10T09:54:13.889Z,47.90
2019-06-10T09:55:12.977Z,47.83
2019-06-10T09:56:12.867Z,48.00
2019-06-10T09:57:12.858Z,48.10
2019-06-10T09:58:12.848Z,47.61
2019-06-10T09:59:12.835Z,47.63
2019-06-10T10:00:12.828Z,48.13
2019-06-10T10:01:13.495Z,48.02
2019-06-10T10:02:12.806Z,47.73
2019-06-10T10:03:12.794Z,47.92
2019-06-10T10:04:12.783Z,49.02
2019-06-10T10:05:12.773Z,49.41
2019-06-10T10:06:15.682Z,48.92
2019-06-10T10:07:12.778Z,49.41
2019-06-10T10:08:12.893Z,48.82
2019-06-10T10:09:12.733Z,49.21
2019-06-10T10:10:12.993Z,49.21
2019-06-10T10:11:13.107Z,48.82
2019-06-10T10:12:12.702Z,48.82
2019-06-10T10:13:13.198Z,48.62
2019-06-10T10:14:16.017Z,48.82
2019-06-10T10:15:26.630Z,48.62
2019-06-10T10:16:13.655Z,49.11
2019-06-10T10:17:12.888Z,48.02
2019-06-10T10:18:13.372Z,49.02
2019-06-10T10:19:13.228Z,48.52
2019-06-10T10:20:12.630Z,48.72
2019-06-10T10:21:13.176Z,49.02
2019-06-10T10:22:13.979Z,49.51
2019-06-10T10:23:13.676Z,49.02
2019-06-10T10:24:15.147Z,49.79
2019-06-10T10:25:14.425Z,50.01
2019-06-10T10:26:13.959Z,50.51
2019-06-10T10:27:13.383Z,49.88
2019-06-10T10:28:13.416Z,49.11
2019-06-10T10:29:13.151Z,49.41
2019-06-10T10:30:13.536Z,48.82
2019-06-10T10:31:13.083Z,53.38
2019-06-10T10:32:13.146Z,50.31
2019-06-10T10:33:12.908Z,49.19
2019-06-10T10:34:13.506Z,49.11
2019-06-10T10:35:12.758Z,48.72
2019-06-10T10:36:14.089Z,48.92
2019-06-10T10:37:12.494Z,49.32
2019-06-10T10:38:14.350Z,49.32
2019-06-10T10:39:13.970Z,49.61
2019-06-10T10:40:12.436Z,50.21
2019-06-10T10:41:13.265Z,49.41
2019-06-10T10:42:12.650Z,49.21
2019-06-10T10:43:25.374Z,50.18
2019-06-10T10:44:14.595Z,50.58
2019-06-10T10:45:13.262Z,49.79
2019-06-10T10:46:13.815Z,49.41
2019-06-10T10:47:12.501Z,49.39
2019-06-10T10:48:14.110Z,50.18
2019-06-10T10:49:13.226Z,48.90
2019-06-10T10:50:13.939Z,49.79
2019-06-10T10:51:13.242Z,49.79
2019-06-10T10:52:12.932Z,49.79
2019-06-10T10:53:12.897Z,49.09
2019-06-10T10:54:28.413Z,48.99
2019-06-10T10:55:13.241Z,49.29
2019-06-10T10:56:13.039Z,49.09
2019-06-10T10:57:13.197Z,49.09
2019-06-10T10:58:12.911Z,49.39
2019-06-10T10:59:13.267Z,49.29
2019-06-10T11:00:12.534Z,49.29
2019-06-10T11:01:14.925Z,49.09
2019-06-10T11:02:12.714Z,49.39
2019-06-10T11:03:13.361Z,48.97
2019-06-10T11:04:13.204Z,49.37
2019-06-10T11:05:12.854Z,48.87
2019-06-10T11:06:12.881Z,49.07
2019-06-10T11:07:12.990Z,48.87
2019-06-10T11:08:13.551Z,49.37
2019-06-10T11:09:12.966Z,48.87
2019-06-10T11:10:12.632Z,48.87
2019-06-10T11:11:13.429Z,49.27
2019-06-10T11:12:12.065Z,48.87
2019-06-10T11:13:12.049Z,48.97
2019-06-10T11:14:15.083Z,48.97
2019-06-10T11:15:13.696Z,49.37
2019-06-10T11:16:12.018Z,49.07
2019-06-10T11:17:12.016Z,49.07
2019-06-10T11:18:12.701Z,49.17
2019-06-10T11:19:13.047Z,49.86
2019-06-10T11:20:13.637Z,49.66
2019-06-10T11:21:13.287Z,50.16
2019-06-10T11:22:12.651Z,50.06
2019-06-10T11:23:12.461Z,49.99
2019-06-10T11:24:14.283Z,49.69
2019-06-10T11:25:12.539Z,49.88
2019-06-10T11:26:13.042Z,49.39
2019-06-10T11:27:12.784Z,49.99
2019-06-10T11:28:11.889Z,49.76
2019-06-10T11:29:11.884Z,50.18
2019-06-10T11:30:12.408Z,49.96
2019-06-10T11:31:13.719Z,50.36
2019-06-10T11:32:11.845Z,50.46
2019-06-10T11:33:11.846Z,50.65
2019-06-10T11:34:11.832Z,49.76
2019-06-10T11:35:12.238Z,50.46
2019-06-10T11:36:13.577Z,50.36
2019-06-10T11:37:12.666Z,50.46
2019-06-10T11:38:12.817Z,50.36
2019-06-10T11:39:13.370Z,50.36
2019-06-10T11:40:13.570Z,50.36
2019-06-10T11:41:13.479Z,50.16
2019-06-10T11:42:13.235Z,50.26
2019-06-10T11:43:13.108Z,50.56
2019-06-10T11:44:11.716Z,49.76
2019-06-10T11:45:11.706Z,50.26
2019-06-10T11:46:13.726Z,50.56
2019-06-10T11:47:13.133Z,49.66
2019-06-10T11:48:13.000Z,50.85
2019-06-10T11:49:12.597Z,50.16
2019-06-10T11:50:12.203Z,50.46
2019-06-10T11:51:13.024Z,49.96
2019-06-10T11:52:12.577Z,50.46
2019-06-10T11:53:12.798Z,50.46
2019-06-10T11:54:12.889Z,50.36
2019-06-10T11:55:18.429Z,49.66
2019-06-10T11:56:13.222Z,50.56
2019-06-10T11:57:12.628Z,50.36
2019-06-10T11:58:11.566Z,50.16
2019-06-10T11:59:13.366Z,50.36
2019-06-10T12:00:16.649Z,50.36
2019-06-10T12:01:13.430Z,50.43
2019-06-10T12:02:13.200Z,50.23
2019-06-10T12:03:13.147Z,50.13
2019-06-10T12:04:12.945Z,50.13
2019-06-10T12:05:12.982Z,50.13
2019-06-10T12:06:13.651Z,50.34
2019-06-10T12:07:12.934Z,50.34
2019-06-10T12:08:13.111Z,50.43
2019-06-10T12:09:13.802Z,49.52
2019-06-10T12:10:12.846Z,49.91
2019-06-10T12:11:12.600Z,49.62
2019-06-10T12:12:12.928Z,49.81
2019-06-10T12:13:13.381Z,50.11
2019-06-10T12:14:12.932Z,50.51
2019-06-10T12:15:12.150Z,50.31
2019-06-10T12:17:05.536Z,50.21
2019-06-10T12:17:24.648Z,50.51
2019-06-10T12:18:13.146Z,50.21
2019-06-10T12:19:12.727Z,49.71
2019-06-10T12:20:13.342Z,50.51
2019-06-10T12:21:13.032Z,50.01
2019-06-10T12:22:13.408Z,50.01
2019-06-10T12:23:12.741Z,50.41
2019-06-10T12:24:12.706Z,50.01
2019-06-10T12:25:31.493Z,50.51
2019-06-10T12:26:12.283Z,49.79
2019-06-10T12:27:13.114Z,49.69
2019-06-10T12:28:12.950Z,50.38
2019-06-10T12:29:12.390Z,50.29
2019-06-10T12:30:13.241Z,50.38
2019-06-10T12:31:13.520Z,49.79
2019-06-10T12:32:13.309Z,50.38
2019-06-10T12:33:19.927Z,49.79
2019-06-10T12:34:12.634Z,49.59
2019-06-10T12:35:13.489Z,49.89
2019-06-10T12:36:12.872Z,49.69
2019-06-10T12:37:15.753Z,49.79
2019-06-10T12:38:13.844Z,49.89
2019-06-10T12:39:14.833Z,50.18
2019-06-10T12:40:12.766Z,49.69
2019-06-10T12:41:14.087Z,50.48
2019-06-10T12:42:14.149Z,49.79
2019-06-10T12:43:12.664Z,49.89
2019-06-10T12:44:12.359Z,49.69
2019-06-10T12:45:12.758Z,49.69
2019-06-10T12:46:12.801Z,49.57
2019-06-10T12:47:11.042Z,49.87
2019-06-10T12:48:13.171Z,49.89
2019-06-10T12:49:13.032Z,50.16
2019-06-10T12:50:12.046Z,50.06
2019-06-10T12:51:13.445Z,50.36
2019-06-10T12:52:12.539Z,49.69